Time;durP1;ratioP1;P1;durP2;ratioP2;P2;SDS_P1;SDS_P2;PMS_P1;PMS_P2;Temp;Humidity;BMP_temperature;BMP_pressure;BME280_temperature;BME280_humidity;BME280_pressure;Samples;Min_cycle;Max_cycle;Signal;HPM_P1;HPM_P2
2024/01/11 00:05:58;;;;;;;41.63;18.93;;;-4.70;99.90;;;;;;4916206;29;20068;-93
2024/01/11 00:08:51;;;;;;;43.03;19.60;;;-7.10;99.90;;;;;;4915619;29;20052;-92
2024/01/11 00:11:45;;;;;;;41.67;20.63;;;-6.00;99.90;;;;;;5342151;23;20093;-91
2024/01/11 00:22:02;;;;;;;44.97;20.47;;;-5.70;99.90;;;;;;4930712;23;20123;-91
2024/01/11 00:27:41;;;;;;;42.90;19.70;;;-6.20;99.90;;;;;;4952244;23;20056;-91
2024/01/11 00:30:25;;;;;;;49.03;21.97;;;-7.10;99.90;;;;;;4948841;23;20056;-92
2024/01/11 00:47:08;;;;;;;49.17;21.33;;;-6.30;99.90;;;;;;5793371;23;20055;-91
2024/01/11 00:49:37;;;;;;;43.23;20.00;;;-6.20;99.90;;;;;;5010968;23;20063;-91
2024/01/11 00:56:34;;;;;;;44.23;20.70;;;-4.60;99.90;;;;;;4916406;29;20070;-92
2024/01/11 00:59:15;;;;;;;47.13;20.70;;;-5.00;99.90;;;;;;4899647;29;20055;-92
2024/01/11 01:26:17;;;;;;;48.83;21.40;;;-7.20;99.90;;;;;;4903147;29;20508;-94
2024/01/11 01:39:30;;;;;;;52.43;21.47;;;-7.30;99.90;;;;;;4919428;29;20062;-93
2024/01/11 02:01:22;;;;;;;45.87;20.50;;;-6.10;99.90;;;;;;4925963;29;20047;-92
2024/01/11 02:03:51;;;;;;;48.70;20.57;;;-6.00;99.90;;;;;;4911007;23;20048;-92
2024/01/11 02:14:10;;;;;;;46.47;19.97;;;-5.40;99.90;;;;;;4919019;29;20106;-93
2024/01/11 02:19:36;;;;;;;48.73;21.20;;;-8.20;99.90;;;;;;4881497;29;20056;-92
2024/01/11 02:35:42;;;;;;;50.43;21.37;;;-7.70;99.90;;;;;;5177782;23;20128;-91
2024/01/11 02:58:22;;;;;;;49.73;20.87;;;-7.50;99.90;;;;;;4918906;29;19965;-91
2024/01/11 03:04:51;;;;;;;47.60;20.73;;;-5.80;99.90;;;;;;4941342;29;20291;-90
2024/01/11 03:10:05;;;;;;;51.47;21.77;;;-7.50;99.90;;;;;;5069851;23;20149;-91
2024/01/11 03:12:37;;;;;;;54.83;22.90;;;-7.30;99.90;;;;;;4920218;29;20044;-91
2024/01/11 03:15:27;;;;;;;57.50;22.73;;;-7.40;99.90;;;;;;4919655;29;20040;-90
2024/01/11 03:18:00;;;;;;;47.93;20.93;;;-6.40;99.90;;;;;;4920060;29;20058;-91
2024/01/11 03:20:41;;;;;;;54.33;21.63;;;-7.70;99.90;;;;;;5150967;23;20063;-91
2024/01/11 03:23:32;;;;;;;56.17;22.20;;;-6.70;99.90;;;;;;4919191;29;20067;-91
2024/01/11 03:34:36;;;;;;;56.53;24.23;;;-7.70;99.90;;;;;;4936583;29;20046;-90
2024/01/11 03:41:34;;;;;;;54.50;21.93;;;-5.40;99.90;;;;;;5226022;23;20086;-90
2024/01/11 03:44:07;;;;;;;56.47;23.30;;;-6.70;99.90;;;;;;4937243;28;20484;-90
2024/01/11 03:46:48;;;;;;;51.80;22.93;;;-6.10;99.90;;;;;;4937877;29;20055;-90
2024/01/11 03:49:26;;;;;;;51.03;21.60;;;-5.00;99.90;;;;;;4938056;29;20130;-90
2024/01/11 03:54:37;;;;;;;51.40;20.98;;;-6.90;99.90;;;;;;5112068;23;20457;-90
2024/01/11 03:57:17;;;;;;;51.83;21.63;;;-6.80;99.90;;;;;;5170502;23;20292;-91
2024/01/11 04:26:24;;;;;;;54.63;22.13;;;-5.90;99.90;;;;;;4952224;23;20098;-93
2024/01/11 05:23:21;;;;;;;54.70;20.90;;;-8.00;99.90;;;;;;5068016;23;20023;-90
2024/01/11 05:25:56;;;;;;;60.05;23.15;;;-7.30;99.90;;;;;;4964508;23;20534;-90
2024/01/11 06:39:54;;;;;;;56.23;22.37;;;-6.10;99.90;;;;;;4918552;29;20567;-90
2024/01/11 06:46:41;;;;;;;56.20;22.13;;;-5.90;99.90;;;;;;4916326;29;20075;-90
2024/01/11 07:20:04;;;;;;;57.67;23.13;;;-5.40;99.90;;;;;;4923167;29;20088;-92
2024/01/11 07:22:33;;;;;;;60.67;24.27;;;-4.50;99.90;;;;;;5198220;23;20344;-91
2024/01/11 07:25:27;;;;;;;63.70;23.83;;;-4.70;99.90;;;;;;4914337;29;20055;-91
2024/01/11 07:27:53;;;;;;;63.58;23.77;;;;;;;;;;4899914;29;20040;-85
2024/01/11 07:30:31;;;;;;;66.63;22.63;;;-4.40;99.90;;;;;;4900204;29;20063;-86
2024/01/11 07:33:15;;;;;;;64.27;24.13;;;-4.80;99.90;;;;;;4899985;29;20048;-87
2024/01/11 07:35:49;;;;;;;67.68;25.48;;;-4.50;99.90;;;;;;4899581;29;20063;-84
2024/01/11 07:38:15;;;;;;;62.77;23.93;;;-3.50;99.90;;;;;;4899639;29;20036;-87
2024/01/11 07:40:50;;;;;;;58.40;23.57;;;-4.40;99.90;;;;;;4899599;29;20128;-87
2024/01/11 07:43:26;;;;;;;70.30;25.13;;;-4.40;99.90;;;;;;4897935;29;20059;-86
2024/01/11 07:46:12;;;;;;;60.50;23.57;;;-2.00;99.90;;;;;;4899347;29;20056;-84
2024/01/11 07:48:37;;;;;;;64.33;23.87;;;-4.00;99.90;;;;;;4899643;29;20060;-85
2024/01/11 07:51:15;;;;;;;67.70;24.67;;;-4.30;99.90;;;;;;4899035;29;20036;-86
2024/01/11 07:53:40;;;;;;;57.67;22.63;;;-1.80;99.90;;;;;;4899418;29;20135;-86
2024/01/11 07:56:09;;;;;;;71.97;25.17;;;-4.30;99.90;;;;;;4899107;29;20471;-85
2024/01/11 07:58:37;;;;;;;66.70;25.23;;;-4.00;99.90;;;;;;4899172;29;20066;-85
2024/01/11 08:01:04;;;;;;;65.60;24.53;;;-3.90;99.90;;;;;;4899441;29;20374;-86
2024/01/11 08:03:34;;;;;;;63.80;24.87;;;-4.10;99.90;;;;;;4898810;29;20044;-86
2024/01/11 08:06:07;;;;;;;60.57;23.93;;;-4.00;99.90;;;;;;4893721;29;20446;-86
2024/01/11 08:08:39;;;;;;;60.53;24.27;;;-4.10;99.90;;;;;;4888890;29;20044;-86
2024/01/11 08:11:14;;;;;;;57.30;22.57;;;-3.70;99.90;;;;;;4895755;29;20307;-86
2024/01/11 08:13:54;;;;;;;61.80;23.97;;;-3.30;99.90;;;;;;4899246;29;20174;-86
2024/01/11 08:16:26;;;;;;;56.70;24.20;;;-3.90;99.90;;;;;;4899565;29;20063;-86
2024/01/11 08:18:52;;;;;;;64.40;24.47;;;-3.90;99.90;;;;;;4898335;29;20081;-86
2024/01/11 08:21:31;;;;;;;62.27;24.93;;;-3.60;99.90;;;;;;4899482;29;20445;-86
2024/01/11 08:23:57;;;;;;;58.97;24.20;;;-3.60;99.90;;;;;;4898442;29;20163;-87
2024/01/11 08:26:23;;;;;;;64.07;24.63;;;-3.50;99.90;;;;;;4898487;29;20079;-87
2024/01/11 08:28:48;;;;;;;64.17;23.33;;;-3.50;99.90;;;;;;4899243;29;20040;-86
2024/01/11 08:31:14;;;;;;;59.40;24.60;;;-3.40;99.90;;;;;;4898889;29;20048;-87
2024/01/11 08:33:40;;;;;;;65.63;26.33;;;-3.40;99.90;;;;;;4902342;29;20062;-87
2024/01/11 08:36:06;;;;;;;73.50;29.83;;;-3.30;99.90;;;;;;4902964;29;20083;-87
2024/01/11 08:38:32;;;;;;;74.03;29.67;;;-3.30;99.90;;;;;;4902447;29;20067;-87
2024/01/11 08:40:58;;;;;;;74.30;28.37;;;-3.20;99.90;;;;;;4898961;29;20492;-87
2024/01/11 08:43:32;;;;;;;64.33;27.67;;;-3.20;99.90;;;;;;4902605;29;20045;-87
2024/01/11 08:45:58;;;;;;;65.17;26.73;;;-3.20;99.90;;;;;;4901581;29;20055;-87
2024/01/11 08:48:27;;;;;;;69.80;27.27;;;-3.10;99.90;;;;;;4902521;29;20040;-87
2024/01/11 08:50:53;;;;;;;73.67;32.57;;;-3.10;99.90;;;;;;4901247;29;20056;-88
2024/01/11 08:53:18;;;;;;;62.87;24.40;;;-3.00;99.90;;;;;;4901004;29;20548;-85
2024/01/11 08:55:44;;;;;;;65.80;25.33;;;-3.00;99.90;;;;;;4902521;29;20404;-86
2024/01/11 08:58:10;;;;;;;65.43;26.23;;;-3.00;99.90;;;;;;4901246;29;20059;-82
2024/01/11 09:00:37;;;;;;;62.60;26.90;;;-2.90;99.90;;;;;;4901786;29;20504;-87
2024/01/11 09:03:03;;;;;;;66.63;25.13;;;-2.90;99.90;;;;;;4902514;29;20044;-85
2024/01/11 09:05:29;;;;;;;62.90;26.47;;;-2.80;99.90;;;;;;4902522;29;20428;-88
2024/01/11 09:07:55;;;;;;;60.10;26.23;;;-2.80;99.90;;;;;;4901759;29;20135;-88
2024/01/11 09:10:21;;;;;;;56.53;24.67;;;-2.80;99.90;;;;;;4902535;29;20079;-88
2024/01/11 09:12:49;;;;;;;58.13;23.83;;;-2.70;99.90;;;;;;4902796;29;20400;-87
2024/01/11 09:15:14;;;;;;;61.53;25.30;;;-2.70;99.90;;;;;;4900768;29;20120;-83
2024/01/11 09:17:40;;;;;;;57.47;25.23;;;-2.60;99.90;;;;;;4902063;29;20132;-85
2024/01/11 09:20:06;;;;;;;61.23;25.30;;;-2.60;99.90;;;;;;4901994;29;20396;-85
2024/01/11 09:22:32;;;;;;;55.93;25.30;;;-2.50;99.90;;;;;;4901466;29;20517;-85
2024/01/11 09:24:58;;;;;;;57.83;24.87;;;-2.50;99.90;;;;;;4901859;29;20075;-85
2024/01/11 09:27:23;;;;;;;58.17;25.13;;;-2.50;99.90;;;;;;4904039;29;20040;-85
2024/01/11 09:29:49;;;;;;;55.97;24.57;;;-2.50;99.90;;;;;;4900821;29;20051;-85
2024/01/11 09:32:14;;;;;;;63.03;25.00;;;-2.30;99.90;;;;;;4907038;29;20040;-86
2024/01/11 09:34:40;;;;;;;59.90;25.27;;;-2.30;99.90;;;;;;4900308;29;20075;-85
2024/01/11 09:37:06;;;;;;;52.40;22.73;;;-2.20;99.90;;;;;;4899744;29;20045;-85
2024/01/11 09:39:31;;;;;;;58.43;25.23;;;-2.20;99.90;;;;;;4898697;29;20056;-84
2024/01/11 09:42:11;;;;;;;62.73;27.30;;;-2.20;99.90;;;;;;4896567;29;20557;-85
2024/01/11 09:44:38;;;;;;;59.43;26.10;;;-2.10;99.90;;;;;;4897486;29;20055;-85
2024/01/11 09:47:06;;;;;;;61.67;27.10;;;-2.00;99.90;;;;;;4897616;29;20048;-86
2024/01/11 09:49:35;;;;;;;68.37;29.10;;;-2.00;99.90;;;;;;4884254;29;20044;-86
2024/01/11 09:52:02;;;;;;;68.37;29.20;;;-1.90;99.90;;;;;;4897927;29;20058;-86
2024/01/11 09:54:28;;;;;;;63.30;28.93;;;-1.80;99.90;;;;;;4898378;29;20049;-85
2024/01/11 09:56:54;;;;;;;52.93;24.03;;;-1.80;99.90;;;;;;4897098;29;20454;-86
2024/01/11 09:59:23;;;;;;;52.27;24.03;;;-1.80;99.90;;;;;;4897085;29;20654;-85
2024/01/11 10:01:49;;;;;;;62.00;24.73;;;-1.70;99.90;;;;;;4898427;29;20084;-86
2024/01/11 10:04:16;;;;;;;55.57;25.03;;;-1.60;99.90;;;;;;4913013;29;20450;-86
2024/01/11 10:06:42;;;;;;;54.67;23.97;;;-1.60;99.90;;;;;;4897831;29;20076;-85
2024/01/11 10:09:08;;;;;;;58.97;30.67;;;-1.50;99.90;;;;;;4896854;29;20386;-86
2024/01/11 10:11:34;;;;;;;67.70;32.50;;;-1.50;99.90;;;;;;4896730;29;20053;-86
2024/01/11 10:14:01;;;;;;;52.83;23.07;;;-1.40;99.90;;;;;;4897685;29;20044;-87
2024/01/11 10:16:28;;;;;;;54.03;24.27;;;-1.30;99.90;;;;;;4897499;29;20401;-87
2024/01/11 10:18:55;;;;;;;50.80;23.10;;;-1.30;99.90;;;;;;4896215;29;20100;-87
2024/01/11 10:21:21;;;;;;;51.37;22.70;;;-1.20;99.90;;;;;;4905796;29;20041;-87
2024/01/11 10:23:46;;;;;;;53.00;23.30;;;-1.30;99.90;;;;;;4890941;29;20056;-87
2024/01/11 10:26:15;;;;;;;50.97;21.63;;;-1.10;99.90;;;;;;4879875;29;20437;-87
2024/01/11 10:28:45;;;;;;;95.07;55.33;;;-1.10;99.90;;;;;;4880996;29;20067;-87
2024/01/11 10:31:11;;;;;;;59.60;29.73;;;-1.00;99.90;;;;;;4881715;29;20396;-87
2024/01/11 10:33:37;;;;;;;51.53;22.63;;;-1.00;99.90;;;;;;4882428;29;20047;-87
2024/01/11 10:36:04;;;;;;;54.57;23.53;;;-1.00;99.90;;;;;;4881962;29;20096;-86
2024/01/11 10:38:30;;;;;;;50.83;21.93;;;-1.00;99.90;;;;;;4881614;29;20147;-85
2024/01/11 10:40:59;;;;;;;49.37;22.10;;;-0.90;99.90;;;;;;4881398;29;20056;-84
2024/01/11 10:43:26;;;;;;;51.70;22.83;;;-0.90;99.90;;;;;;4880525;29;20049;-85
2024/01/11 10:45:53;;;;;;;48.47;22.10;;;-0.90;99.90;;;;;;4880024;29;20044;-88
2024/01/11 10:48:22;;;;;;;49.47;21.87;;;-0.90;99.90;;;;;;4882556;29;20700;-87
2024/01/11 10:50:57;;;;;;;48.50;22.00;;;-0.90;99.90;;;;;;4892047;29;20060;-88
2024/01/11 10:53:45;;;;;;;51.97;23.43;;;-0.80;99.90;;;;;;4898618;29;20130;-86
2024/01/11 10:56:12;;;;;;;55.87;25.97;;;0.60;99.90;;;;;;4899084;29;20052;-86
2024/01/11 10:58:43;;;;;;;47.73;22.70;;;-0.70;99.90;;;;;;4901125;29;20056;-87
2024/01/11 11:01:11;;;;;;;49.53;21.67;;;-0.60;99.90;;;;;;4899525;29;20047;-87
2024/01/11 11:03:38;;;;;;;50.90;21.43;;;-0.60;99.90;;;;;;4900596;29;20054;-88
2024/01/11 11:06:06;;;;;;;50.80;21.87;;;0.90;99.90;;;;;;4900279;29;20048;-86
2024/01/11 11:08:32;;;;;;;44.30;20.73;;;-0.50;99.90;;;;;;4899937;29;20056;-87
2024/01/11 11:11:04;;;;;;;47.83;22.07;;;-0.50;99.90;;;;;;4900271;29;20400;-86
2024/01/11 11:13:30;;;;;;;48.70;22.43;;;0.30;99.90;;;;;;4899743;29;20378;-88
2024/01/11 11:16:03;;;;;;;47.37;21.73;;;0.90;99.90;;;;;;4899664;29;20040;-87
2024/01/11 11:18:39;;;;;;;44.08;20.95;;;-0.40;99.90;;;;;;4900402;29;20130;-88
2024/01/11 11:21:11;;;;;;;44.70;19.33;;;-0.30;99.90;;;;;;4899506;29;20052;-87
2024/01/11 11:23:37;;;;;;;43.77;20.30;;;-0.40;99.90;;;;;;4899788;29;20143;-87
2024/01/11 11:26:06;;;;;;;47.23;20.47;;;-0.30;99.90;;;;;;4899263;29;20048;-87
2024/01/11 11:28:34;;;;;;;42.73;20.30;;;-0.30;99.90;;;;;;4899198;29;20055;-87
2024/01/11 11:31:02;;;;;;;44.20;18.93;;;-0.20;99.90;;;;;;4899776;29;20048;-89
2024/01/11 11:33:30;;;;;;;47.97;20.30;;;-0.10;99.90;;;;;;4900336;29;20441;-90
2024/01/11 11:35:59;;;;;;;57.67;27.13;;;-0.10;99.90;;;;;;4893533;29;20045;-89
2024/01/11 11:38:30;;;;;;;53.83;25.70;;;1.00;99.90;;;;;;4897334;29;20488;-90
2024/01/11 11:41:03;;;;;;;49.30;24.23;;;-0.10;99.90;;;;;;4899166;29;20036;-89
2024/01/11 11:43:29;;;;;;;43.40;19.37;;;1.20;99.90;;;;;;4899464;29;20393;-88
2024/01/11 11:45:56;;;;;;;38.67;17.90;;;0.10;99.90;;;;;;4899808;29;20090;-89
2024/01/11 11:48:31;;;;;;;45.37;20.73;;;0.10;99.90;;;;;;4900250;29;20071;-88
2024/01/11 11:51:06;;;;;;;45.13;20.83;;;0.20;99.90;;;;;;4899494;29;20048;-88
2024/01/11 11:53:36;;;;;;;36.83;16.77;;;0.20;99.90;;;;;;4899789;29;20062;-89
2024/01/11 11:56:06;;;;;;;41.53;20.35;;;0.30;99.90;;;;;;4887097;29;20052;-88
2024/01/11 11:58:33;;;;;;;36.83;16.80;;;0.20;99.90;;;;;;4881073;29;20150;-88
2024/01/11 12:01:00;;;;;;;37.03;17.30;;;0.20;99.90;;;;;;4881045;29;20049;-90
2024/01/11 12:03:39;;;;;;;41.17;18.97;;;2.10;99.90;;;;;;4894629;29;20051;-90
2024/01/11 12:06:10;;;;;;;38.00;16.93;;;0.40;99.90;;;;;;4899696;29;20052;-89
2024/01/11 12:08:41;;;;;;;37.33;16.90;;;0.40;99.90;;;;;;4894679;29;20082;-89
2024/01/11 12:11:06;;;;;;;35.63;17.73;;;1.70;99.90;;;;;;4893696;29;20048;-89
2024/01/11 12:13:32;;;;;;;37.10;16.23;;;0.40;99.90;;;;;;4899236;29;20044;-89
2024/01/11 12:15:58;;;;;;;37.90;16.13;;;0.50;99.90;;;;;;4899138;29;20162;-88
2024/01/11 12:18:24;;;;;;;37.13;16.27;;;0.50;99.90;;;;;;4898707;29;20051;-88
2024/01/11 12:20:53;;;;;;;38.53;18.20;;;0.50;99.90;;;;;;4899397;29;20044;-88
2024/01/11 12:23:18;;;;;;;38.67;17.57;;;0.50;99.90;;;;;;4899305;29;20064;-88
2024/01/11 12:25:44;;;;;;;40.00;18.23;;;0.50;99.90;;;;;;4898121;29;20111;-88
2024/01/11 12:28:10;;;;;;;40.10;17.93;;;0.50;99.90;;;;;;4898865;29;20139;-87
2024/01/11 12:30:38;;;;;;;39.70;17.70;;;0.50;99.90;;;;;;4899278;29;20052;-85
2024/01/11 12:33:05;;;;;;;44.20;21.60;;;0.60;99.90;;;;;;4899483;29;20409;-87
2024/01/11 12:35:31;;;;;;;42.90;22.43;;;0.40;99.90;;;;;;4899058;29;20067;-86
2024/01/11 12:38:09;;;;;;;38.40;17.10;;;0.40;99.90;;;;;;4898105;29;20044;-86
2024/01/11 12:40:46;;;;;;;44.03;20.17;;;0.40;99.90;;;;;;4899358;29;20411;-84
2024/01/11 12:43:12;;;;;;;37.63;16.90;;;0.40;99.90;;;;;;4898690;29;20044;-84
2024/01/11 12:45:39;;;;;;;40.70;18.77;;;0.40;99.90;;;;;;4898310;29;20139;-85
2024/01/11 12:48:07;;;;;;;41.77;18.87;;;0.40;99.90;;;;;;4899089;29;20147;-85
2024/01/11 12:50:33;;;;;;;37.20;17.00;;;0.40;99.90;;;;;;4899155;29;20052;-84
2024/01/11 12:53:17;;;;;;;34.87;15.83;;;0.30;99.90;;;;;;4898185;29;20055;-85
2024/01/11 12:55:44;;;;;;;32.28;12.02;;;0.40;99.90;;;;;;4899412;29;20056;-85
2024/01/11 12:58:12;;;;;;;36.37;16.90;;;0.40;99.90;;;;;;4898432;29;20048;-84
2024/01/11 13:00:38;;;;;;;38.73;18.93;;;0.40;99.90;;;;;;4898543;29;20059;-84
2024/01/11 13:03:05;;;;;;;40.90;19.17;;;0.50;99.90;;;;;;4898995;29;20127;-86
2024/01/11 13:05:34;;;;;;;42.23;19.60;;;0.40;99.90;;;;;;4899281;29;20119;-87
2024/01/11 13:08:08;;;;;;;43.67;19.90;;;0.40;99.90;;;;;;4897955;29;20048;-87
2024/01/11 13:10:35;;;;;;;41.30;18.98;;;0.40;99.90;;;;;;4898905;29;20047;-87
2024/01/11 13:13:02;;;;;;;42.67;18.87;;;0.40;99.90;;;;;;4897793;29;20094;-87
2024/01/11 13:15:29;;;;;;;47.13;20.50;;;0.50;99.90;;;;;;4898916;29;20058;-87
2024/01/11 13:17:56;;;;;;;41.93;18.97;;;0.40;99.90;;;;;;4898573;29;20048;-87
2024/01/11 13:20:21;;;;;;;45.23;20.87;;;0.50;99.90;;;;;;4901062;29;20108;-84
2024/01/11 13:22:47;;;;;;;41.17;18.53;;;0.40;99.90;;;;;;4902525;29;20040;-84
2024/01/11 13:25:13;;;;;;;40.30;17.23;;;0.50;99.90;;;;;;4901851;29;20063;-87
2024/01/11 13:27:38;;;;;;;45.73;19.97;;;0.50;99.90;;;;;;4901628;29;20083;-87
2024/01/11 13:30:05;;;;;;;43.77;19.67;;;0.40;99.90;;;;;;4902084;29;20040;-87
2024/01/11 13:32:31;;;;;;;39.30;17.70;;;0.50;99.90;;;;;;4903278;29;20059;-87
2024/01/11 13:34:58;;;;;;;40.90;19.53;;;0.60;99.90;;;;;;4901681;29;20040;-87
2024/01/11 13:37:24;;;;;;;45.63;20.67;;;0.60;99.90;;;;;;4902409;29;20111;-87
2024/01/11 13:39:49;;;;;;;47.03;19.83;;;0.50;99.90;;;;;;4902186;29;20048;-87
2024/01/11 13:42:15;;;;;;;47.47;23.30;;;0.60;99.90;;;;;;4901183;29;20051;-87
2024/01/11 13:44:41;;;;;;;53.80;33.60;;;0.50;99.90;;;;;;4901845;29;20052;-87
2024/01/11 13:47:07;;;;;;;65.60;36.67;;;0.60;99.90;;;;;;4901899;29;20048;-87
2024/01/11 13:49:34;;;;;;;68.13;40.53;;;0.60;99.90;;;;;;4901222;29;20054;-87
2024/01/11 13:52:00;;;;;;;75.47;45.50;;;0.60;99.90;;;;;;4901598;29;20135;-87
2024/01/11 13:54:25;;;;;;;48.67;24.50;;;0.60;99.90;;;;;;4901867;29;20471;-87
2024/01/11 13:56:54;;;;;;;56.03;32.90;;;0.60;99.90;;;;;;4901150;29;20052;-87
2024/01/11 13:59:19;;;;;;;48.57;22.07;;;1.10;99.90;;;;;;4901687;29;20098;-87
2024/01/11 14:01:45;;;;;;;45.23;22.47;;;0.60;99.90;;;;;;4901740;29;20051;-87
2024/01/11 14:04:11;;;;;;;91.67;50.33;;;0.60;99.90;;;;;;4900813;29;20087;-87
2024/01/11 14:06:36;;;;;;;47.77;22.07;;;0.60;99.90;;;;;;4925434;23;20147;-87
2024/01/11 14:09:04;;;;;;;91.97;47.37;;;0.50;99.90;;;;;;4901251;29;20039;-87
2024/01/11 14:11:30;;;;;;;74.43;39.77;;;1.70;99.90;;;;;;4901259;29;20063;-86
2024/01/11 14:13:55;;;;;;;64.90;36.13;;;0.50;99.90;;;;;;4901066;29;20485;-87
2024/01/11 14:16:21;;;;;;;76.70;37.77;;;0.60;99.90;;;;;;4899289;29;20449;-87
2024/01/11 14:18:47;;;;;;;62.10;29.57;;;0.50;99.90;;;;;;4901061;29;20409;-87
2024/01/11 14:21:12;;;;;;;54.17;27.00;;;0.50;99.90;;;;;;4901165;29;20146;-87
2024/01/11 14:23:38;;;;;;;61.80;32.97;;;0.40;99.90;;;;;;4900669;29;20111;-87
2024/01/11 14:26:03;;;;;;;63.00;27.93;;;0.40;99.90;;;;;;4901661;29;20048;-87
2024/01/11 14:28:29;;;;;;;54.50;25.60;;;0.50;99.90;;;;;;4901167;29;20044;-87
2024/01/11 14:30:55;;;;;;;60.20;31.23;;;0.50;99.90;;;;;;4899985;29;20512;-86
2024/01/11 14:33:21;;;;;;;78.93;41.27;;;0.50;99.90;;;;;;4901112;29;20051;-87
2024/01/11 14:35:46;;;;;;;62.00;30.37;;;1.70;99.90;;;;;;4901378;29;20044;-87
2024/01/11 14:38:12;;;;;;;95.53;56.07;;;0.50;99.90;;;;;;4900064;29;20054;-87
2024/01/11 14:40:38;;;;;;;71.40;37.13;;;0.50;99.90;;;;;;4900753;29;20052;-87
2024/01/11 14:43:04;;;;;;;56.53;25.67;;;0.50;99.90;;;;;;4900707;29;20052;-87
2024/01/11 14:45:30;;;;;;;71.87;36.37;;;0.50;99.90;;;;;;4899985;29;20172;-87
2024/01/11 14:47:55;;;;;;;64.70;27.43;;;0.50;99.90;;;;;;4916136;23;20131;-87
2024/01/11 14:50:21;;;;;;;62.33;28.17;;;0.40;99.90;;;;;;4919770;29;20051;-87
2024/01/11 14:52:47;;;;;;;55.43;26.87;;;0.40;99.90;;;;;;4918681;29;20040;-87
2024/01/11 14:55:13;;;;;;;53.77;23.37;;;0.40;99.90;;;;;;4919604;29;20043;-87
2024/01/11 14:57:41;;;;;;;55.33;27.63;;;0.40;99.90;;;;;;4919285;29;20408;-87
2024/01/11 15:00:10;;;;;;;50.73;22.10;;;0.40;99.90;;;;;;4918786;29;20043;-87
2024/01/11 15:02:35;;;;;;;65.70;28.83;;;0.40;99.90;;;;;;4919437;29;20543;-87
2024/01/11 15:05:01;;;;;;;60.87;25.73;;;0.30;99.90;;;;;;4919093;29;20411;-87
2024/01/11 15:07:27;;;;;;;53.90;22.33;;;0.30;99.90;;;;;;4918776;29;20400;-87
2024/01/11 15:09:52;;;;;;;63.07;23.60;;;0.30;99.90;;;;;;4919102;29;20102;-87
2024/01/11 15:12:20;;;;;;;59.50;23.03;;;0.20;99.90;;;;;;4919652;29;20047;-87
2024/01/11 15:14:45;;;;;;;53.53;22.53;;;0.30;99.90;;;;;;4918473;29;20117;-87
2024/01/11 15:17:11;;;;;;;54.90;24.80;;;1.50;99.90;;;;;;4918965;29;20082;-87
2024/01/11 15:19:36;;;;;;;63.93;26.60;;;0.20;99.90;;;;;;4918716;29;20054;-87
2024/01/11 15:22:13;;;;;;;104.50;42.20;;;0.20;99.90;;;;;;4918880;29;20563;-87
2024/01/11 15:24:40;;;;;;;73.63;29.17;;;0.20;99.90;;;;;;4919446;29;20043;-87
2024/01/11 15:27:06;;;;;;;65.20;26.10;;;0.20;99.90;;;;;;4917803;29;20051;-87
2024/01/11 15:29:31;;;;;;;75.43;32.87;;;0.30;99.90;;;;;;4919234;29;20040;-87
2024/01/11 15:31:57;;;;;;;70.20;28.27;;;0.30;99.90;;;;;;4919006;29;20476;-87
2024/01/11 15:34:22;;;;;;;79.80;31.20;;;0.30;99.90;;;;;;4918170;29;20093;-87
2024/01/11 15:36:48;;;;;;;65.83;25.07;;;0.30;99.90;;;;;;4919037;29;20046;-87
2024/01/11 15:39:14;;;;;;;60.33;23.77;;;0.30;99.90;;;;;;4918742;29;20039;-87
2024/01/11 15:41:40;;;;;;;73.90;29.80;;;0.30;99.90;;;;;;4917641;29;20071;-87
2024/01/11 15:44:06;;;;;;;49.97;20.70;;;0.30;99.90;;;;;;4918495;29;20420;-87
2024/01/11 15:46:32;;;;;;;51.90;20.63;;;0.30;99.90;;;;;;4918940;29;20052;-87
2024/01/11 15:48:57;;;;;;;56.80;21.10;;;0.30;99.90;;;;;;4917488;29;20054;-87
2024/01/11 15:51:23;;;;;;;66.27;22.07;;;0.30;99.90;;;;;;4919131;29;20508;-87
2024/01/11 15:53:56;;;;;;;61.53;22.27;;;0.20;99.90;;;;;;4919116;29;20157;-90
2024/01/11 15:56:22;;;;;;;65.47;22.40;;;0.30;99.90;;;;;;4917780;29;20043;-89
2024/01/11 15:58:48;;;;;;;64.83;22.00;;;0.30;99.90;;;;;;4918956;29;20066;-92
2024/01/11 16:01:13;;;;;;;65.60;22.07;;;0.30;99.90;;;;;;4918403;29;20055;-89
2024/01/11 16:03:39;;;;;;;56.03;21.73;;;0.20;99.90;;;;;;4917993;29;20039;-87
2024/01/11 16:06:05;;;;;;;73.07;24.67;;;0.30;99.90;;;;;;4918073;29;20779;-91
2024/01/11 16:08:30;;;;;;;64.23;23.07;;;0.20;99.90;;;;;;4918704;29;20051;-90
2024/01/11 16:11:15;;;;;;;81.93;29.60;;;0.20;99.90;;;;;;4920646;23;20052;-94
2024/01/11 16:13:45;;;;;;;81.87;31.57;;;0.40;99.90;;;;;;4900646;29;20110;-90
2024/01/11 16:16:17;;;;;;;70.37;22.77;;;0.00;99.90;;;;;;4899530;29;20130;-94
2024/01/11 16:18:52;;;;;;;70.23;25.20;;;1.00;99.90;;;;;;4900945;29;20492;-96
2024/01/11 16:21:17;;;;;;;68.03;22.00;;;-0.20;99.90;;;;;;4900665;29;20052;-94
2024/01/11 16:23:49;;;;;;;74.97;23.63;;;0.80;99.90;;;;;;4899324;29;20040;-95
2024/01/11 16:26:18;;;;;;;72.07;28.97;;;1.30;99.90;;;;;;4890576;29;20095;-94
2024/01/11 16:28:49;;;;;;;71.93;23.10;;;0.50;99.90;;;;;;4900709;29;20044;-92
2024/01/11 16:31:24;;;;;;;70.33;22.93;;;0.10;99.90;;;;;;4899505;29;20056;-93
2024/01/11 16:40:13;;;;;;;69.37;23.60;;;1.90;99.90;;;;;;4937588;29;20503;-95
2024/01/11 16:46:46;;;;;;;65.07;22.93;;;1.70;99.90;;;;;;4974804;23;20067;-96
2024/01/11 16:54:47;;;;;;;69.17;25.57;;;1.60;99.90;;;;;;4932039;23;20059;-95
2024/01/11 16:57:28;;;;;;;72.97;24.93;;;1.50;99.90;;;;;;4905858;29;20133;-96
2024/01/11 17:00:03;;;;;;;71.47;24.30;;;1.20;99.90;;;;;;4906990;29;20044;-94
2024/01/11 17:02:41;;;;;;;75.43;24.70;;;1.70;99.90;;;;;;4906669;29;20059;-93
2024/01/11 17:05:13;;;;;;;73.13;25.77;;;0.40;99.90;;;;;;4905060;29;20073;-96
2024/01/11 17:08:11;;;;;;;74.93;25.50;;;-0.40;99.90;;;;;;4971926;23;20052;-96
2024/01/11 17:10:43;;;;;;;81.43;26.73;;;0.00;99.90;;;;;;4904866;29;20044;-95
2024/01/11 17:13:09;;;;;;;80.47;27.00;;;-0.30;99.90;;;;;;4903247;29;20036;-95
2024/01/11 17:15:38;;;;;;;70.30;24.73;;;0.00;99.90;;;;;;4904734;29;20119;-95
2024/01/11 17:18:07;;;;;;;77.87;26.03;;;2.40;99.90;;;;;;4904513;29;20147;-96
2024/01/11 17:24:19;;;;;;;80.50;30.70;;;0.30;99.90;;;;;;5028202;23;20074;-96
2024/01/11 17:26:51;;;;;;;188.57;83.37;;;1.70;99.90;;;;;;4933810;29;20058;-95
2024/01/11 17:29:54;;;;;;;79.40;28.10;;;1.10;99.90;;;;;;4936624;29;20050;-94
2024/01/11 17:36:11;;;;;;;85.57;25.43;;;0.20;99.90;;;;;;5286125;23;20047;-94
2024/01/11 17:38:41;;;;;;;86.30;32.67;;;0.50;99.90;;;;;;4930860;29;20043;-95
2024/01/11 17:41:11;;;;;;;84.07;29.80;;;1.10;99.90;;;;;;5002845;23;20584;-95
2024/01/11 17:46:10;;;;;;;84.13;32.90;;;0.20;99.90;;;;;;4962406;23;20102;-96
2024/01/11 17:48:39;;;;;;;;;;;0.40;99.90;;;;;;4929994;23;20051;-95
2024/01/11 17:57:17;;;;;;;75.93;24.67;;;1.80;99.90;;;;;;4950937;28;20141;-94
2024/01/11 18:03:32;;;;;;;82.60;26.13;;;1.10;99.90;;;;;;4933320;29;20047;-95
2024/01/11 18:06:01;;;;;;;75.90;24.77;;;0.20;99.90;;;;;;4897781;29;20085;-95
2024/01/11 18:08:28;;;;;;;82.93;27.00;;;2.60;99.90;;;;;;4915632;29;20091;-94
2024/01/11 18:10:58;;;;;;;72.10;25.17;;;0.50;99.90;;;;;;4913543;29;20055;-95
2024/01/11 18:16:32;;;;;;;83.40;27.53;;;-0.40;99.90;;;;;;4918663;29;20074;-96
2024/01/11 18:21:29;;;;;;;86.93;29.00;;;0.20;99.90;;;;;;5355790;23;20023;31
2024/01/11 18:23:56;;;;;;;89.33;29.40;;;0.30;99.90;;;;;;4891525;29;20048;-94
2024/01/11 18:26:27;;;;;;;72.63;26.77;;;1.60;99.90;;;;;;4902278;29;20044;-96
2024/01/11 18:29:06;;;;;;;82.17;27.63;;;-0.20;99.90;;;;;;4896474;29;20054;-95
2024/01/11 18:31:35;;;;;;;79.90;27.20;;;0.10;99.90;;;;;;4899634;29;20409;-94
2024/01/11 18:34:02;;;;;;;83.97;26.70;;;2.50;99.90;;;;;;4895640;29;20053;-95
2024/01/11 18:37:03;;;;;;;77.70;27.53;;;0.30;99.90;;;;;;4895809;29;20045;-94
2024/01/11 18:39:35;;;;;;;89.80;28.80;;;1.40;99.90;;;;;;4849180;29;20148;-96
2024/01/11 18:42:09;;;;;;;79.27;26.13;;;1.90;99.90;;;;;;5005194;23;20111;-95
2024/01/11 18:45:00;;;;;;;77.17;26.27;;;0.20;99.90;;;;;;4939904;23;20059;-95
2024/01/11 18:47:27;;;;;;;82.67;27.53;;;-0.20;99.90;;;;;;4932628;29;20511;-94
2024/01/11 18:59:55;;;;;;;78.30;25.40;;;1.80;99.90;;;;;;4887801;29;20560;-96
2024/01/11 19:02:55;;;;;;;73.17;26.57;;;-0.10;99.90;;;;;;4952881;23;20047;-96
2024/01/11 19:15:11;;;;;;;75.93;27.30;;;0.30;99.90;;;;;;5013717;23;20051;-96
2024/01/11 19:17:39;;;;;;;71.73;25.13;;;-0.20;99.90;;;;;;4946432;28;20392;-96
2024/01/11 19:20:08;;;;;;;65.87;24.87;;;0.90;99.90;;;;;;4927732;29;20039;-95
2024/01/11 19:46:03;;;;;;;82.80;26.10;;;0.30;99.90;;;;;;4916058;29;20052;-96
2024/01/11 19:49:20;;;;;;;70.40;24.80;;;0.20;99.90;;;;;;4894720;29;20059;-96
2024/01/11 19:52:12;;;;;;;129.83;52.10;;;0.50;99.90;;;;;;4899572;29;20091;-96
2024/01/11 19:54:44;;;;;;;150.20;65.40;;;2.30;99.90;;;;;;4899488;29;20052;-96